Oswegatchie, New York
Current Conditions -  °F | °C
As of 1:58 PM on Monday 20 Oct 2014 (Local Time) from KGTB Reporting Station
Scattered Clouds Scattered Clouds  
Wind Chill: 43°   Ceiling: Unl
Heat Index: 45°   Visibility: 10mi
Dew Point: 39°   Wind: 5mph
Humidity: 79%   Direction: 130°SE
Pressure: 29.88"   Gusts: NA
Location:  44.18°N, 75.07°W
Report Text: KGTB 201758Z AUTO 13004KT 10SM SCT065 07/04 A2988 RMK AO2 RAE1723DZB1723E1735 SLP124 P0001 60001 T00740040 10074 20024
Loading
Personal Weather Stations






























Interactive Weather Map
Tropical Storm Tracking
New forecast layout! Learn more

10-Day Weather Forecast

Advertisements
Track Severe Weather on mobile